LIBNLGSM

Guest
Details From LIBN - LECCE
To LGSM - SAMOS
Flight Number -
Tags generated
Created
Modified
Stats Distance 459 nm / 850 km
Max Altitude 35,000 ft / 10,668 m
Waypoints 8
Social Downloads 0
Likes 0
Share VATSIM

Download

Looking for another format? Having issues loading an existing format? Contact us
Advertisement - Login to hide

Notes

Basic altitude profile: - Ascent Rate: 2500ft/min - Ascent Speed: 250kts - Cruise Altitude: 35000ft - Cruise Speed: 420kts - Descent Rate: 1500ft/min - Descent Speed: 250kts Options: - Use NATs: no - Use PACOTS: no - Use low airways: no - Use high airways: yes

Route

LIBN KRK UL995 VARIX LGSM

ID Type Via Altitude Latitude Longitude Leg Dist Tot Dist Heading (true) Name
O LIBN APT - 0 ft / 0 m 40.23898˚ 18.13309˚ - 0 nm - LECCE
KRK VOR - 35,000 ft / 10,668 m 39.44389˚ 20.07278˚ 101 nm 101 nm 117° / 119° KERKIRA VOR-DME
VARDI FIX UL995 (AWY-HI) 35,000 ft / 10,668 m 38.67194˚ 21.95111˚ 99 nm 200 nm 117° / 118° -
GERMI FIX UL995 (AWY-HI) 35,000 ft / 10,668 m 38.16556˚ 23.12444˚ 63 nm 263 nm 118° / 119° -
ATV VOR UL995 (AWY-HI) 33,000 ft / 10,058 m 37.88861˚ 23.81444˚ 36 nm 300 nm 117° / 117° ATHINAI VOR-DME
KEA VOR UL995 (AWY-HI) 27,500 ft / 8,382 m 37.55719˚ 24.29783˚ 30 nm 330 nm 131° / 131° KEA VOR-DME
VARIX FIX UL995 (AWY-HI) 23,500 ft / 7,163 m 37.36389˚ 25.03417˚ 36 nm 367 nm 108° / 109° -
O LGSM APT - 0 ft / 0 m 37.68901˚ 26.91112˚ 91 nm 459 nm 77° / 78° SAMOS

Altitude Profile

Advertisement - Login to hide

Weather


0- 5 10 15 20 25 30 35+ Temperature / ° C

Clouds and Precipitation
Forecast for 2017-12-18 18:00 UTC. Updated 2 hours ago

Ground ~20,000 ft ~40,000 ft Winds

LIBN

Details ICAO LIBN (LCC)
Name LECCE
Region Italy
Timezone Europe/Rome (UTC+1.0)
Stats Elevation 156 ft / 48 m (AMSL)
Location 40.238982° 18.133091°
Runways 1
Magnetic Variation 3.887° E

METAR

LIBN 181555Z 32009KT 9999 FEW030 07/02 Q1018 RMK FEW SCT070 VIS MIN 9999 WIND THR14 31009KT WIND THR32 32010KT BLU

Decode

TAF

Not found

Departure Runways

ID Width Length Bearing (true) Bearing (mag) Surface Threshold Offset Overrun Length
14 197 ft / 60 m 6,786 ft / 2,068 m 145.87° 141.98° Asphalt 197 ft / 60 m 0 ft / 0 m
32 197 ft / 60 m 6,786 ft / 2,068 m 325.87° 321.98° Asphalt 448 ft / 137 m 0 ft / 0 m

LGSM

Details ICAO LGSM (SMI)
Name SAMOS
Region Greece
Timezone Europe/Athens (UTC+2.0)
Stats Elevation 19 ft / 6 m (AMSL)
Location 37.689012° 26.911123°
Runways 1
Magnetic Variation 4.802° E

METAR

LGSM 181650Z 22010KT 9999 SCT020 13/07 Q1014

Decode

TAF

Not found

Destination Runways

ID Width Length Bearing (true) Bearing (mag) Surface Threshold Offset Overrun Length
09 148 ft / 45 m 6,690 ft / 2,039 m 94.02° 89.22° Asphalt 230 ft / 70 m 0 ft / 0 m
27 148 ft / 45 m 6,690 ft / 2,039 m 274.03° 269.23° Asphalt 0 ft / 0 m 0 ft / 0 m

Popular Alternatives